Atka, Alaska
Current Conditions -  °F | °C
As of 5:16 PM on Saturday 20 Dec 2014 (Local Time) from PAAK Reporting Station
Overcast Overcast  
Wind Chill: 33°   Ceiling: 4400
Heat Index: 39°   Visibility: 10mi
Dew Point: 34°   Wind: 9mph
Humidity: 81%   Direction: 330°NNW
Pressure: 28.97"   Gusts: NA
Location:  52.19°N, 174.2°W
Report Text: PAAK 210316Z 33008KT 10SM FEW017 BKN044 OVC050 04/01 A2897 RMK AO1
Loading
Personal Weather Stations






























Interactive Weather Map New forecast layout! Learn more

10-Day Weather Forecast

Advertisements
Track Severe Weather on mobile